createdAt,value
2022-10-31T00:04:39.162Z,79
2022-10-31T00:09:41.188Z,80
2022-10-31T00:14:43.241Z,80
2022-10-31T00:19:44.810Z,80
2022-10-31T00:24:46.558Z,81
2022-10-31T00:29:48.563Z,81
2022-10-31T00:34:50.541Z,80
2022-10-31T00:39:51.963Z,81
2022-10-31T00:44:54.174Z,81
2022-10-31T00:49:55.355Z,81
2022-10-31T00:54:57.259Z,82
2022-10-31T00:59:58.479Z,82
2022-10-31T01:05:00.179Z,81
2022-10-31T01:10:01.725Z,82
2022-10-31T01:15:03.641Z,82
2022-10-31T01:20:05.502Z,82
2022-10-31T01:25:07.002Z,83
2022-10-31T01:30:08.558Z,83
2022-10-31T01:35:16.624Z,82
2022-10-31T01:40:18.196Z,84
2022-10-31T01:45:20.380Z,84
2022-10-31T01:50:21.663Z,82
2022-10-31T01:55:25.163Z,83
2022-10-31T02:00:24.889Z,83
2022-10-31T02:05:26.295Z,83
2022-10-31T02:10:28.086Z,83
2022-10-31T02:15:29.436Z,83
2022-10-31T02:20:31.387Z,82
2022-10-31T02:25:33.292Z,82
2022-10-31T02:30:34.835Z,83
2022-10-31T02:35:36.004Z,82
2022-10-31T02:40:37.566Z,83
2022-10-31T02:45:38.866Z,83
2022-10-31T02:50:40.683Z,82
2022-10-31T02:55:41.800Z,82
2022-10-31T03:00:44.872Z,83
2022-10-31T03:05:45.993Z,83
2022-10-31T03:10:47.648Z,83
2022-10-31T03:15:49.080Z,84
2022-10-31T03:20:50.964Z,84
2022-10-31T03:25:52.649Z,83
2022-10-31T03:30:54.335Z,84
2022-10-31T03:35:55.481Z,84
2022-10-31T03:40:56.934Z,84
2022-10-31T03:45:58.509Z,84
2022-10-31T03:51:00.177Z,84
2022-10-31T03:56:01.692Z,84
2022-10-31T04:01:03.444Z,85
2022-10-31T04:06:05.061Z,85
2022-10-31T04:11:06.760Z,84
2022-10-31T04:16:10.092Z,85
2022-10-31T04:21:09.998Z,84
2022-10-31T04:26:11.871Z,84
2022-10-31T04:31:13.848Z,84
2022-10-31T04:36:15.243Z,84
2022-10-31T04:41:17.122Z,83
2022-10-31T04:46:18.597Z,83
2022-10-31T04:51:19.986Z,83
2022-10-31T05:26:32.521Z,83
2022-10-31T05:31:34.526Z,84
2022-10-31T05:56:42.933Z,83
2022-10-31T06:06:46.519Z,83
2022-10-31T06:16:49.966Z,82
2022-10-31T06:21:51.229Z,83
2022-10-31T06:26:52.617Z,83
2022-10-31T06:31:53.989Z,82
2022-10-31T06:36:55.819Z,83
2022-10-31T06:41:57.485Z,83
2022-10-31T06:46:59.241Z,82
2022-10-31T06:52:00.362Z,82
2022-10-31T06:57:01.793Z,82
2022-10-31T07:02:03.383Z,81
2022-10-31T07:07:04.455Z,80
2022-10-31T07:12:06.262Z,79
2022-10-31T07:17:08.239Z,77
2022-10-31T07:22:10.109Z,74
2022-10-31T07:27:11.526Z,73
2022-10-31T07:32:13.096Z,72
2022-10-31T07:37:14.861Z,69
2022-10-31T07:42:16.405Z,68
2022-10-31T07:47:18.467Z,66
2022-10-31T07:52:20.130Z,61
2022-10-31T07:57:25.006Z,61
2022-10-31T08:02:24.352Z,61
2022-10-31T08:07:26.514Z,58
2022-10-31T08:12:28.276Z,55
2022-10-31T08:17:29.701Z,53
2022-10-31T08:22:31.898Z,49
2022-10-31T08:27:33.515Z,47
2022-10-31T08:32:34.952Z,47
2022-10-31T08:37:37.171Z,46
2022-10-31T08:42:39.092Z,46
2022-10-31T08:47:40.814Z,46
2022-10-31T08:53:03.352Z,46
2022-10-31T08:57:43.524Z,45
2022-10-31T09:02:44.977Z,44
2022-10-31T09:07:46.495Z,44
2022-10-31T09:12:48.605Z,42
2022-10-31T09:17:50.096Z,40
2022-10-31T09:22:51.839Z,37
2022-10-31T09:27:53.012Z,36
2022-10-31T09:32:54.798Z,36
2022-10-31T09:37:56.442Z,35
2022-10-31T09:42:58.150Z,34
2022-10-31T09:47:59.818Z,32
2022-10-31T09:53:01.402Z,32
2022-10-31T09:58:02.442Z,32
2022-10-31T10:03:04.106Z,33
2022-10-31T10:08:05.636Z,35
2022-10-31T10:13:09.126Z,36
2022-10-31T10:18:09.215Z,38
2022-10-31T10:23:10.737Z,39
2022-10-31T10:28:12.777Z,40
2022-10-31T10:33:14.952Z,41
2022-10-31T10:38:16.695Z,42
2022-10-31T10:43:18.304Z,43
2022-10-31T10:48:19.907Z,44
2022-10-31T10:53:21.544Z,45
2022-10-31T10:58:22.881Z,45
2022-10-31T11:03:24.318Z,43
2022-10-31T11:08:27.302Z,44
2022-10-31T11:13:27.568Z,45
2022-10-31T11:18:28.829Z,45
2022-10-31T11:23:30.839Z,46
2022-10-31T11:28:32.765Z,47
2022-10-31T11:33:34.268Z,48
2022-10-31T11:38:36.270Z,49
2022-10-31T11:43:37.401Z,49
2022-10-31T11:48:39.594Z,51
2022-10-31T11:53:41.744Z,52
2022-10-31T11:58:42.888Z,52
2022-10-31T12:03:44.562Z,53
2022-10-31T12:08:46.481Z,53
2022-10-31T12:13:48.351Z,54
2022-10-31T12:18:50.047Z,55
2022-10-31T12:23:51.702Z,55
2022-10-31T12:28:55.324Z,55
2022-10-31T12:33:54.977Z,55
2022-10-31T12:38:56.393Z,55
2022-10-31T12:43:58.232Z,56
2022-10-31T12:48:59.680Z,55
2022-10-31T12:54:01.144Z,55
2022-10-31T12:59:02.538Z,56
2022-10-31T13:04:03.731Z,57
2022-10-31T13:09:05.030Z,58
2022-10-31T13:14:06.963Z,58
2022-10-31T13:19:08.749Z,58
2022-10-31T13:24:10.077Z,59
2022-10-31T13:29:12.202Z,59
2022-10-31T13:34:14.307Z,58
2022-10-31T13:39:15.681Z,59
2022-10-31T13:44:17.748Z,60
2022-10-31T13:49:19.125Z,60
2022-10-31T13:54:20.601Z,61
2022-10-31T13:59:22.447Z,61
2022-10-31T14:04:25.730Z,62
2022-10-31T14:09:26.273Z,63
2022-10-31T14:14:27.818Z,63
2022-10-31T14:19:29.322Z,64
2022-10-31T14:24:30.847Z,63
2022-10-31T14:29:32.187Z,64
2022-10-31T14:34:33.931Z,65
2022-10-31T14:39:35.320Z,66
2022-10-31T14:44:37.336Z,67
2022-10-31T14:49:38.671Z,66
2022-10-31T14:54:39.997Z,67
2022-10-31T14:59:41.457Z,66
2022-10-31T15:04:42.790Z,66
2022-10-31T15:09:44.240Z,66
2022-10-31T15:14:45.346Z,67
2022-10-31T15:19:46.970Z,67
2022-10-31T15:24:48.721Z,67
2022-10-31T15:29:50.080Z,67
2022-10-31T15:34:51.374Z,68
2022-10-31T15:39:53.477Z,68
2022-10-31T15:44:55.309Z,67
2022-10-31T15:49:57.092Z,67
2022-10-31T15:54:59.349Z,68
2022-10-31T16:00:00.780Z,68
2022-10-31T16:05:01.985Z,68
2022-10-31T16:10:03.899Z,68
2022-10-31T16:15:05.056Z,68
2022-10-31T16:20:06.268Z,68
2022-10-31T16:25:07.554Z,68
2022-10-31T16:30:08.662Z,69
2022-10-31T16:35:10.299Z,68
2022-10-31T16:40:11.995Z,69
2022-10-31T16:45:13.531Z,68
2022-10-31T16:50:15.427Z,69
2022-10-31T16:55:17.464Z,69
2022-10-31T17:00:19.465Z,69
2022-10-31T17:05:20.700Z,70
2022-10-31T17:10:22.579Z,70
2022-10-31T17:15:24.528Z,69
2022-10-31T17:20:26.125Z,70
2022-10-31T17:25:28.101Z,70
2022-10-31T17:30:29.995Z,70
2022-10-31T17:35:31.944Z,71
2022-10-31T17:40:33.737Z,71
2022-10-31T17:45:35.760Z,71
2022-10-31T17:50:37.524Z,72
2022-10-31T17:55:39.169Z,72
2022-10-31T18:00:40.463Z,73
2022-10-31T18:05:42.034Z,74
2022-10-31T18:10:43.935Z,74
2022-10-31T18:15:45.837Z,74
2022-10-31T18:20:53.765Z,74
2022-10-31T18:25:55.345Z,75
2022-10-31T18:30:57.139Z,75
2022-10-31T18:35:58.950Z,75
2022-10-31T18:41:00.986Z,76
2022-10-31T18:46:02.243Z,76
2022-10-31T18:56:05.392Z,76
2022-10-31T19:01:06.884Z,76
2022-10-31T19:06:08.317Z,75
2022-10-31T19:11:10.319Z,76
2022-10-31T19:16:12.396Z,76
2022-10-31T19:21:14.001Z,76
2022-10-31T19:26:16.166Z,76
2022-10-31T19:31:17.873Z,76
2022-10-31T19:36:19.486Z,77
2022-10-31T19:46:40.331Z,77
2022-10-31T19:51:24.524Z,77
2022-10-31T19:56:26.318Z,77
2022-10-31T20:01:27.878Z,77
2022-10-31T20:11:31.286Z,77
2022-10-31T20:26:36.690Z,78
2022-10-31T20:36:39.584Z,79
2022-10-31T20:46:43.421Z,80
2022-10-31T20:51:44.793Z,81
2022-10-31T20:56:46.979Z,80
2022-10-31T21:01:48.712Z,80
2022-10-31T21:06:50.525Z,81
2022-10-31T21:11:52.042Z,82
2022-10-31T21:16:53.829Z,83
2022-10-31T21:21:55.318Z,84
2022-10-31T21:26:57.328Z,84
2022-10-31T21:31:59.220Z,85
2022-10-31T21:37:00.946Z,86
2022-10-31T21:42:02.142Z,86
2022-10-31T21:47:03.745Z,86
2022-10-31T21:52:05.915Z,86
2022-10-31T21:57:07.330Z,86
2022-10-31T22:02:09.029Z,87
2022-10-31T22:07:10.292Z,88
2022-10-31T22:12:12.067Z,88
2022-10-31T22:17:13.123Z,87
2022-10-31T22:22:15.283Z,88
2022-10-31T22:27:16.668Z,87
2022-10-31T22:32:18.494Z,87
2022-10-31T22:37:20.001Z,87
2022-10-31T22:42:21.172Z,86
2022-10-31T22:47:22.445Z,85
2022-10-31T22:52:24.397Z,86
2022-10-31T22:57:26.502Z,86
2022-10-31T23:12:31.477Z,86
2022-10-31T23:17:33.186Z,86
2022-10-31T23:22:34.310Z,86
2022-10-31T23:27:35.721Z,85
2022-10-31T23:32:37.064Z,84
2022-10-31T23:37:38.707Z,84
2022-10-31T23:42:40.197Z,84
2022-10-31T23:47:43.160Z,84
2022-10-31T23:52:43.506Z,84
2022-10-31T23:57:45.184Z,84
